createdAt,value
2022-08-11T00:02:31.867Z,20.20
2022-08-11T00:05:05.681Z,20.20
2022-08-11T00:07:34.501Z,20.20
2022-08-11T00:10:04.367Z,20.10
2022-08-11T00:12:32.914Z,20.10
2022-08-11T00:15:02.443Z,20.10
2022-08-11T00:17:33.746Z,20.00
2022-08-11T00:20:12.052Z,20.00
2022-08-11T00:22:47.402Z,19.90
2022-08-11T00:25:21.698Z,19.90
2022-08-11T00:27:50.354Z,19.80
2022-08-11T00:30:19.274Z,19.80
2022-08-11T00:32:59.797Z,19.80
2022-08-11T00:35:54.679Z,19.70
2022-08-11T00:38:23.888Z,19.70
2022-08-11T00:40:58.076Z,19.80
2022-08-11T00:43:48.955Z,19.70
2022-08-11T00:46:29.529Z,19.60
2022-08-11T00:49:14.274Z,19.50
2022-08-11T00:52:04.108Z,19.60
2022-08-11T00:55:04.322Z,19.60
2022-08-11T00:58:05.264Z,19.60
2022-08-11T01:00:56.992Z,19.50
2022-08-11T01:03:41.451Z,19.50
2022-08-11T01:06:33.113Z,19.50
2022-08-11T01:09:33.370Z,19.40
2022-08-11T01:12:22.357Z,19.40
2022-08-11T01:15:30.038Z,19.40
2022-08-11T01:18:28.469Z,19.40
2022-08-11T01:21:19.866Z,19.30
2022-08-11T01:24:27.173Z,19.20
2022-08-11T01:27:23.109Z,19.20
2022-08-11T01:30:15.584Z,19.20
2022-08-11T01:33:25.735Z,19.10
2022-08-11T01:36:37.793Z,19.10
2022-08-11T01:39:48.764Z,19.10
2022-08-11T01:43:14.880Z,19.00
2022-08-11T01:45:50.005Z,19.10
2022-08-11T01:48:35.032Z,19.10
2022-08-11T01:51:21.667Z,19.10
2022-08-11T01:53:57.421Z,19.00
2022-08-11T01:56:57.017Z,18.90
2022-08-11T01:59:30.754Z,18.80
2022-08-11T02:02:44.390Z,18.80
2022-08-11T02:05:28.771Z,18.70
2022-08-11T02:08:04.994Z,18.70
2022-08-11T02:11:04.777Z,18.70
2022-08-11T02:13:43.442Z,18.60
2022-08-11T02:16:22.667Z,18.50
2022-08-11T02:19:13.753Z,18.50
2022-08-11T02:22:05.798Z,18.40
2022-08-11T02:24:45.090Z,18.40
2022-08-11T02:27:21.262Z,18.50
2022-08-11T02:30:07.267Z,18.50
2022-08-11T02:32:58.023Z,18.40
2022-08-11T02:35:32.894Z,18.40
2022-08-11T02:38:19.170Z,18.40
2022-08-11T02:40:58.233Z,18.30
2022-08-11T02:43:40.842Z,18.30
2022-08-11T02:46:22.917Z,18.40
2022-08-11T02:49:19.548Z,18.30
2022-08-11T02:52:06.274Z,18.10
2022-08-11T02:54:42.051Z,18.00
2022-08-11T02:57:19.717Z,17.90
2022-08-11T02:59:54.542Z,17.90
2022-08-11T03:02:37.830Z,18.00
2022-08-11T03:05:22.687Z,17.90
2022-08-11T03:08:08.899Z,17.90
2022-08-11T03:11:10.331Z,17.80
2022-08-11T03:14:02.487Z,17.80
2022-08-11T03:16:46.119Z,17.90
2022-08-11T03:19:22.903Z,17.90
2022-08-11T03:22:02.961Z,17.90
2022-08-11T03:24:43.591Z,17.80
2022-08-11T03:27:22.634Z,17.70
2022-08-11T03:30:09.007Z,17.70
2022-08-11T03:32:47.465Z,17.70
2022-08-11T03:35:21.280Z,17.70
2022-08-11T03:37:57.668Z,17.80
2022-08-11T03:42:01.281Z,17.70
2022-08-11T03:44:08.813Z,17.60
2022-08-11T03:46:51.077Z,17.60
2022-08-11T03:49:31.969Z,17.50
2022-08-11T03:52:14.238Z,17.40
2022-08-11T03:54:55.602Z,17.40
2022-08-11T03:58:03.335Z,17.40
2022-08-11T04:00:48.285Z,17.40
2022-08-11T04:03:54.289Z,17.40
2022-08-11T04:07:06.138Z,17.40
2022-08-11T04:10:03.775Z,17.60
2022-08-11T04:13:20.302Z,17.70
2022-08-11T04:16:10.780Z,17.90
2022-08-11T04:19:11.239Z,18.10
2022-08-11T04:22:18.881Z,18.40
2022-08-11T04:25:31.214Z,18.60
2022-08-11T04:28:43.049Z,18.90
2022-08-11T04:31:44.033Z,19.10
2022-08-11T04:34:53.141Z,19.30
2022-08-11T04:37:53.595Z,19.40
2022-08-11T04:40:59.910Z,19.70
2022-08-11T04:44:06.685Z,19.70
2022-08-11T04:47:12.555Z,20.10
2022-08-11T04:50:16.759Z,20.40
2022-08-11T04:53:31.941Z,21.00
2022-08-11T04:56:34.269Z,21.10
2022-08-11T04:59:39.090Z,20.70
2022-08-11T05:02:55.863Z,20.70
2022-08-11T05:05:37.495Z,20.60
2022-08-11T05:09:04.318Z,21.10
2022-08-11T05:11:59.511Z,21.30
2022-08-11T05:14:54.681Z,21.10
2022-08-11T05:17:54.693Z,21.10
2022-08-11T05:20:42.899Z,21.10
2022-08-11T05:23:31.387Z,21.60
2022-08-11T05:26:47.405Z,21.70
2022-08-11T05:29:59.783Z,21.80
2022-08-11T05:32:55.871Z,22.10
2022-08-11T05:35:59.990Z,21.90
2022-08-11T05:38:42.545Z,22.40
2022-08-11T05:41:30.596Z,23.30
2022-08-11T05:44:21.204Z,23.60
2022-08-11T05:47:09.378Z,23.80
2022-08-11T05:49:57.995Z,23.60
2022-08-11T05:52:49.056Z,22.90
2022-08-11T05:56:01.952Z,23.60
2022-08-11T05:58:41.353Z,24.20
2022-08-11T06:01:11.163Z,24.80
2022-08-11T06:03:58.013Z,24.90
2022-08-11T06:06:29.298Z,25.30
2022-08-11T06:08:59.278Z,25.60
2022-08-11T06:11:43.735Z,25.20
2022-08-11T06:14:13.938Z,25.30
2022-08-11T06:16:43.816Z,25.60
2022-08-11T06:19:12.316Z,25.80
2022-08-11T06:21:46.992Z,25.80
2022-08-11T06:24:16.363Z,25.80
2022-08-11T06:27:11.820Z,26.30
2022-08-11T06:29:54.857Z,26.50
2022-08-11T06:32:26.991Z,26.80
2022-08-11T06:35:05.951Z,25.20
2022-08-11T06:37:45.001Z,24.90
2022-08-11T06:40:22.250Z,24.70
2022-08-11T06:42:58.737Z,25.00
2022-08-11T06:45:31.925Z,25.60
2022-08-11T06:48:03.003Z,26.00
2022-08-11T06:50:50.086Z,26.10
2022-08-11T06:53:21.965Z,26.00
2022-08-11T06:56:09.745Z,26.40
2022-08-11T06:59:07.652Z,26.40
2022-08-11T07:01:49.416Z,27.20
2022-08-11T07:04:30.418Z,26.90
2022-08-11T07:07:48.215Z,25.50
2022-08-11T07:10:46.930Z,26.10
2022-08-11T07:13:39.389Z,25.90
2022-08-11T07:16:30.542Z,26.20
2022-08-11T07:19:21.051Z,26.40
2022-08-11T07:22:08.523Z,26.70
2022-08-11T07:25:01.271Z,27.30
2022-08-11T07:27:55.669Z,27.40
2022-08-11T07:30:25.414Z,27.10
2022-08-11T07:32:57.615Z,27.10
2022-08-11T07:35:32.479Z,26.90
2022-08-11T07:38:07.141Z,27.30
2022-08-11T07:40:37.572Z,27.60
2022-08-11T07:43:08.305Z,28.30
2022-08-11T07:45:54.751Z,27.90
2022-08-11T07:48:46.963Z,28.10
2022-08-11T07:51:38.000Z,28.30
2022-08-11T07:54:16.849Z,27.60
2022-08-11T07:57:07.210Z,28.10
2022-08-11T08:00:00.532Z,28.40
2022-08-11T08:03:02.642Z,27.80
2022-08-11T08:05:53.046Z,27.60
2022-08-11T08:08:39.017Z,27.00
2022-08-11T08:11:27.462Z,26.80
2022-08-11T08:14:14.578Z,26.40
2022-08-11T08:17:01.032Z,25.90
2022-08-11T08:19:30.348Z,25.30
2022-08-11T08:22:06.083Z,25.10
2022-08-11T08:24:50.292Z,25.00
2022-08-11T08:27:21.796Z,24.70
2022-08-11T08:30:08.086Z,24.40
2022-08-11T08:32:40.452Z,24.30
2022-08-11T08:35:11.459Z,24.30
2022-08-11T08:37:46.850Z,24.10
2022-08-11T08:40:16.171Z,24.10
2022-08-11T08:42:51.485Z,24.20
2022-08-11T08:45:20.194Z,24.40
2022-08-11T08:47:55.850Z,24.60
2022-08-11T08:50:46.933Z,24.60
2022-08-11T08:53:21.573Z,24.70
2022-08-11T08:55:51.648Z,24.60
2022-08-11T08:58:22.869Z,24.80
2022-08-11T09:00:54.568Z,24.80
2022-08-11T09:04:04.866Z,24.70
2022-08-11T09:06:16.166Z,24.70
2022-08-11T09:08:46.067Z,24.80
2022-08-11T09:11:41.819Z,24.80
2022-08-11T09:14:14.482Z,24.90
2022-08-11T09:16:44.301Z,24.90
2022-08-11T09:19:18.237Z,25.00
2022-08-11T09:22:11.351Z,24.90
2022-08-11T09:24:59.468Z,24.90
2022-08-11T09:27:30.021Z,25.10
2022-08-11T09:29:58.601Z,25.00
2022-08-11T09:32:29.242Z,25.00
2022-08-11T09:34:57.900Z,25.10
2022-08-11T09:37:54.357Z,25.10
2022-08-11T09:40:33.619Z,25.30
2022-08-11T09:43:21.962Z,25.30
2022-08-11T09:45:52.541Z,25.40
2022-08-11T09:48:22.368Z,25.70
2022-08-11T09:50:52.408Z,25.60
2022-08-11T09:53:36.126Z,25.90
2022-08-11T09:56:29.816Z,26.00
2022-08-11T09:58:59.043Z,25.90
2022-08-11T10:01:31.303Z,25.90
2022-08-11T10:04:05.050Z,25.90
2022-08-11T10:06:54.382Z,26.10
2022-08-11T10:09:26.535Z,25.90
2022-08-11T10:11:59.569Z,25.90
2022-08-11T10:14:48.745Z,26.00
2022-08-11T10:17:20.974Z,26.10
2022-08-11T10:20:04.257Z,26.10
2022-08-11T10:22:54.286Z,26.10
2022-08-11T10:25:56.548Z,26.30
2022-08-11T10:28:33.600Z,26.30
2022-08-11T10:31:56.948Z,26.30
2022-08-11T10:34:37.751Z,26.20
2022-08-11T10:37:14.937Z,26.40
2022-08-11T10:39:46.223Z,26.20
2022-08-11T10:42:54.913Z,26.10
2022-08-11T10:45:40.523Z,25.90
2022-08-11T10:48:15.189Z,25.90
2022-08-11T10:51:04.945Z,26.00
2022-08-11T10:53:50.716Z,26.00
2022-08-11T10:56:37.744Z,26.10
2022-08-11T10:59:08.935Z,26.20
2022-08-11T11:01:44.117Z,26.20
2022-08-11T11:04:15.354Z,26.60
2022-08-11T11:06:53.438Z,26.70
2022-08-11T11:09:25.542Z,26.60
2022-08-11T11:12:15.070Z,26.90
2022-08-11T11:15:02.825Z,26.90
2022-08-11T11:18:01.683Z,26.80
2022-08-11T11:20:39.302Z,26.80
2022-08-11T11:23:16.730Z,26.80
2022-08-11T11:26:11.300Z,27.00
2022-08-11T11:29:00.182Z,27.20
2022-08-11T11:31:37.566Z,27.30
2022-08-11T11:34:24.790Z,26.90
2022-08-11T11:36:57.454Z,27.00
2022-08-11T11:39:31.095Z,27.20
2022-08-11T11:42:22.894Z,27.10
2022-08-11T11:44:55.559Z,27.00
2022-08-11T11:47:25.134Z,27.10
2022-08-11T11:49:55.135Z,27.30
2022-08-11T11:52:24.907Z,27.40
2022-08-11T11:54:56.263Z,27.40
2022-08-11T11:57:58.789Z,27.50
2022-08-11T12:00:49.038Z,27.40
2022-08-11T12:03:18.990Z,27.20
2022-08-11T12:05:53.414Z,27.20
2022-08-11T12:08:27.279Z,27.40
2022-08-11T12:11:11.926Z,27.50
2022-08-11T12:13:41.710Z,27.30
2022-08-11T12:16:34.410Z,27.20
2022-08-11T12:19:01.637Z,27.20
2022-08-11T12:21:32.565Z,27.30
2022-08-11T12:24:20.573Z,27.60
2022-08-11T12:27:16.080Z,27.70
2022-08-11T12:29:55.075Z,27.60
2022-08-11T12:32:25.977Z,27.80
2022-08-11T12:34:56.910Z,27.80
2022-08-11T12:37:31.377Z,27.90
2022-08-11T12:40:49.669Z,28.00
2022-08-11T12:43:38.958Z,27.90
2022-08-11T12:46:14.280Z,27.90
2022-08-11T12:49:04.662Z,27.90
2022-08-11T12:52:11.398Z,27.90
2022-08-11T12:54:59.648Z,27.80
2022-08-11T12:57:50.185Z,28.10
2022-08-11T13:00:37.517Z,28.00
2022-08-11T13:03:26.068Z,28.10
2022-08-11T13:05:58.779Z,28.00
2022-08-11T13:08:29.634Z,28.00
2022-08-11T13:11:19.518Z,28.00
2022-08-11T13:13:54.661Z,28.10
2022-08-11T13:16:27.671Z,28.20
2022-08-11T13:18:57.442Z,28.10
2022-08-11T13:21:27.437Z,28.00
2022-08-11T13:23:59.625Z,28.10
2022-08-11T13:26:47.119Z,28.00
2022-08-11T13:29:20.600Z,28.10
2022-08-11T13:31:49.668Z,28.40
2022-08-11T13:34:20.244Z,28.30
2022-08-11T13:36:52.361Z,28.40
2022-08-11T13:39:24.274Z,28.60
2022-08-11T13:41:56.757Z,28.50
2022-08-11T13:44:27.256Z,28.40
2022-08-11T13:46:59.283Z,28.50
2022-08-11T13:49:31.845Z,28.10
2022-08-11T13:52:00.924Z,28.00
2022-08-11T13:54:32.255Z,28.20
2022-08-11T13:57:08.220Z,28.20
2022-08-11T13:59:51.798Z,28.20
2022-08-11T14:02:30.199Z,28.20
2022-08-11T14:05:04.189Z,28.30
2022-08-11T14:07:36.427Z,28.40
2022-08-11T14:10:07.227Z,28.30
2022-08-11T14:12:56.316Z,28.20
2022-08-11T14:15:28.994Z,28.10
2022-08-11T14:18:03.396Z,28.30
2022-08-11T14:20:54.104Z,28.60
2022-08-11T14:23:27.461Z,28.30
2022-08-11T14:26:14.246Z,28.40
2022-08-11T14:28:46.845Z,28.20
2022-08-11T14:31:17.422Z,28.30
2022-08-11T14:34:00.169Z,28.30
2022-08-11T14:36:35.039Z,28.30
2022-08-11T14:39:06.797Z,28.30
2022-08-11T14:42:10.364Z,28.20
2022-08-11T14:45:17.082Z,28.20
2022-08-11T14:47:48.937Z,28.40
2022-08-11T14:50:23.207Z,28.10
2022-08-11T14:52:55.244Z,28.00
2022-08-11T14:55:44.530Z,27.90
2022-08-11T14:58:19.876Z,28.20
2022-08-11T15:00:54.077Z,28.20
2022-08-11T15:03:26.294Z,28.20
2022-08-11T15:06:00.076Z,28.20
2022-08-11T15:08:48.509Z,28.10
2022-08-11T15:11:44.074Z,28.10
2022-08-11T15:14:13.488Z,28.00
2022-08-11T15:17:03.472Z,28.00
2022-08-11T15:19:40.271Z,28.00
2022-08-11T15:22:28.620Z,28.20
2022-08-11T15:24:58.793Z,28.00
2022-08-11T15:27:48.772Z,28.00
2022-08-11T15:30:35.682Z,28.00
2022-08-11T15:33:25.845Z,28.20
2022-08-11T15:36:15.579Z,28.20
2022-08-11T15:38:55.353Z,28.20
2022-08-11T15:41:54.259Z,28.10
2022-08-11T15:45:08.836Z,28.00
2022-08-11T15:47:42.815Z,28.00
2022-08-11T15:50:17.362Z,27.90
2022-08-11T15:52:54.093Z,27.90
2022-08-11T15:55:24.599Z,27.90
2022-08-11T15:58:13.700Z,27.90
2022-08-11T16:01:04.425Z,27.90
2022-08-11T16:04:08.191Z,28.00
2022-08-11T16:06:44.128Z,27.90
2022-08-11T16:09:21.617Z,27.80
2022-08-11T16:11:52.359Z,27.90
2022-08-11T16:14:39.167Z,28.00
2022-08-11T16:17:11.172Z,28.00
2022-08-11T16:19:42.181Z,27.90
2022-08-11T16:22:14.008Z,27.90
2022-08-11T16:27:06.062Z,27.80
2022-08-11T16:27:41.880Z,27.70
2022-08-11T16:30:11.589Z,27.80
2022-08-11T16:32:44.428Z,27.60
2022-08-11T16:35:35.553Z,27.50
2022-08-11T16:38:24.595Z,27.50
2022-08-11T16:40:55.275Z,27.40
2022-08-11T16:43:43.611Z,27.40
2022-08-11T16:46:32.724Z,27.30
2022-08-11T16:49:03.035Z,27.30
2022-08-11T16:51:32.661Z,27.40
2022-08-11T16:54:05.138Z,27.50
2022-08-11T16:56:38.440Z,27.50
2022-08-11T16:59:16.673Z,27.50
2022-08-11T17:01:50.112Z,27.60
2022-08-11T17:04:39.685Z,27.50
2022-08-11T17:07:41.889Z,27.50
2022-08-11T17:10:51.241Z,27.40
2022-08-11T17:13:30.007Z,27.30
2022-08-11T17:16:09.377Z,27.30
2022-08-11T17:18:50.194Z,27.30
2022-08-11T17:21:22.954Z,27.20
2022-08-11T17:23:55.099Z,27.10
2022-08-11T17:26:50.741Z,27.10
2022-08-11T17:29:21.546Z,27.00
2022-08-11T17:32:08.486Z,26.80
2022-08-11T17:34:54.721Z,26.80
2022-08-11T17:37:24.280Z,26.80
2022-08-11T17:39:53.837Z,26.70
2022-08-11T17:42:42.906Z,26.80
2022-08-11T17:45:46.104Z,26.70
2022-08-11T17:48:26.402Z,26.60
2022-08-11T17:50:59.242Z,26.50
2022-08-11T17:54:10.210Z,26.30
2022-08-11T17:56:54.393Z,26.30
2022-08-11T17:59:48.982Z,26.20
2022-08-11T18:02:37.765Z,26.20
2022-08-11T18:05:12.776Z,26.10
2022-08-11T18:08:00.188Z,25.90
2022-08-11T18:10:49.458Z,25.90
2022-08-11T18:13:36.553Z,25.90
2022-08-11T18:16:24.002Z,25.70
2022-08-11T18:19:11.891Z,25.70
2022-08-11T18:22:08.220Z,25.60
2022-08-11T18:25:06.211Z,25.50
2022-08-11T18:27:57.041Z,25.60
2022-08-11T18:30:43.365Z,25.40
2022-08-11T18:33:56.668Z,25.20
2022-08-11T18:36:42.776Z,25.30
2022-08-11T18:39:31.242Z,25.10
2022-08-11T18:42:29.635Z,24.90
2022-08-11T18:45:18.079Z,24.70
2022-08-11T18:48:07.235Z,24.70
2022-08-11T18:51:29.529Z,24.60
2022-08-11T18:54:07.441Z,24.60
2022-08-11T18:56:54.292Z,24.60
2022-08-11T18:59:43.971Z,24.40
2022-08-11T19:02:31.315Z,24.40
2022-08-11T19:05:18.317Z,24.40
2022-08-11T19:08:09.151Z,24.30
2022-08-11T19:10:54.953Z,23.90
2022-08-11T19:13:43.834Z,23.90
2022-08-11T19:16:31.719Z,24.00
2022-08-11T19:19:18.501Z,23.90
2022-08-11T19:22:05.608Z,23.80
2022-08-11T19:24:55.401Z,23.80
2022-08-11T19:27:45.692Z,23.80
2022-08-11T19:30:32.071Z,23.70
2022-08-11T19:33:22.785Z,23.80
2022-08-11T19:36:25.119Z,23.80
2022-08-11T19:39:15.342Z,23.60
2022-08-11T19:42:03.414Z,23.60
2022-08-11T19:44:49.989Z,23.50
2022-08-11T19:47:37.547Z,23.90
2022-08-11T19:50:26.169Z,24.00
2022-08-11T19:53:16.872Z,24.10
2022-08-11T19:56:05.151Z,24.20
2022-08-11T19:58:53.765Z,24.10
2022-08-11T20:01:39.913Z,24.10
2022-08-11T20:04:45.920Z,24.00
2022-08-11T20:07:32.407Z,23.90
2022-08-11T20:10:24.393Z,23.90
2022-08-11T20:13:11.263Z,24.00
2022-08-11T20:16:10.349Z,23.90
2022-08-11T20:18:59.765Z,23.90
2022-08-11T20:21:46.948Z,24.00
2022-08-11T20:24:33.933Z,24.00
2022-08-11T20:27:24.986Z,24.10
2022-08-11T20:30:12.357Z,24.10
2022-08-11T20:33:00.904Z,24.10
2022-08-11T20:35:47.650Z,23.90
2022-08-11T20:38:34.478Z,23.90
2022-08-11T20:41:21.726Z,23.90
2022-08-11T20:44:09.554Z,24.20
2022-08-11T20:46:57.479Z,24.10
2022-08-11T20:49:52.569Z,23.90
2022-08-11T20:52:47.446Z,23.80
2022-08-11T20:55:46.439Z,23.70
2022-08-11T21:01:46.076Z,23.60
2022-08-11T21:04:32.554Z,23.50
2022-08-11T21:10:30.067Z,23.20
2022-08-11T21:13:26.011Z,23.10
2022-08-11T21:16:25.749Z,23.10
2022-08-11T21:19:18.698Z,23.10
2022-08-11T21:22:06.195Z,23.00
2022-08-11T21:24:54.893Z,22.90
2022-08-11T21:27:42.293Z,22.90
2022-08-11T21:30:29.218Z,22.80
2022-08-11T21:33:15.118Z,22.80
2022-08-11T21:36:01.209Z,22.80
2022-08-11T21:38:47.838Z,22.70
2022-08-11T21:41:36.650Z,22.60
2022-08-11T21:44:24.788Z,22.50
2022-08-11T21:47:12.890Z,22.40
2022-08-11T21:50:00.186Z,22.30
2022-08-11T21:52:46.113Z,22.20
2022-08-11T21:55:33.248Z,22.10
2022-08-11T21:58:22.547Z,22.00
2022-08-11T22:01:08.535Z,22.00
2022-08-11T22:03:54.823Z,21.90
2022-08-11T22:06:40.721Z,21.90
2022-08-11T22:09:26.124Z,21.90
2022-08-11T22:12:34.410Z,21.80
2022-08-11T22:15:19.483Z,21.80
2022-08-11T22:18:04.997Z,21.70
2022-08-11T22:20:51.505Z,21.70
2022-08-11T22:23:40.414Z,21.60
2022-08-11T22:26:27.326Z,21.60
2022-08-11T22:29:12.639Z,21.60
2022-08-11T22:32:01.437Z,21.50
2022-08-11T22:34:53.450Z,21.50
2022-08-11T22:37:40.807Z,21.40
2022-08-11T22:40:28.169Z,21.40
2022-08-11T22:43:13.837Z,21.40
2022-08-11T22:45:59.743Z,21.30
2022-08-11T22:48:48.677Z,21.30
2022-08-11T22:51:36.883Z,21.30
2022-08-11T22:54:23.820Z,21.20
2022-08-11T22:57:10.559Z,21.30
2022-08-11T22:59:57.384Z,21.10
2022-08-11T23:02:45.642Z,21.10
2022-08-11T23:05:34.181Z,21.10
2022-08-11T23:08:21.210Z,21.00
2022-08-11T23:11:08.045Z,21.00
2022-08-11T23:13:54.190Z,20.90
2022-08-11T23:16:41.258Z,20.90
2022-08-11T23:20:08.686Z,20.80
2022-08-11T23:22:49.451Z,20.80
2022-08-11T23:25:37.097Z,20.70
2022-08-11T23:28:25.040Z,20.70
2022-08-11T23:31:15.338Z,20.60
2022-08-11T23:34:03.882Z,20.50
2022-08-11T23:36:49.740Z,20.50
2022-08-11T23:39:37.008Z,20.40
2022-08-11T23:42:24.128Z,20.30
2022-08-11T23:45:10.111Z,20.30
2022-08-11T23:47:58.296Z,20.30
2022-08-11T23:50:44.617Z,20.20
2022-08-11T23:53:32.368Z,20.20
2022-08-11T23:56:21.905Z,20.10
2022-08-11T23:59:10.423Z,20.10
